sensor_id;sensor_type;location;lat;lon;timestamp;P1;durP1;ratioP1;P2;durP2;ratioP2
26271;SDS011;13997;48.902;12.472;2023-07-13T00:00:23;11.68;;;6.82;;
26271;SDS011;13997;48.902;12.472;2023-07-13T00:02:49;11.32;;;6.43;;
26271;SDS011;13997;48.902;12.472;2023-07-13T00:05:14;15.18;;;6.78;;
26271;SDS011;13997;48.902;12.472;2023-07-13T00:07:40;11.35;;;6.75;;
26271;SDS011;13997;48.902;12.472;2023-07-13T00:10:06;9.90;;;6.30;;
26271;SDS011;13997;48.902;12.472;2023-07-13T00:12:34;10.63;;;6.88;;
26271;SDS011;13997;48.902;12.472;2023-07-13T00:15:03;10.95;;;6.38;;
26271;SDS011;13997;48.902;12.472;2023-07-13T00:17:31;13.60;;;6.40;;
26271;SDS011;13997;48.902;12.472;2023-07-13T00:19:56;12.80;;;6.80;;
26271;SDS011;13997;48.902;12.472;2023-07-13T00:22:23;11.38;;;6.85;;
26271;SDS011;13997;48.902;12.472;2023-07-13T00:24:50;12.23;;;6.72;;
26271;SDS011;13997;48.902;12.472;2023-07-13T00:27:17;15.20;;;7.10;;
26271;SDS011;13997;48.902;12.472;2023-07-13T00:29:43;15.65;;;6.40;;
26271;SDS011;13997;48.902;12.472;2023-07-13T00:32:09;11.80;;;7.15;;
26271;SDS011;13997;48.902;12.472;2023-07-13T00:34:36;16.25;;;7.43;;
26271;SDS011;13997;48.902;12.472;2023-07-13T00:37:02;16.95;;;7.10;;
26271;SDS011;13997;48.902;12.472;2023-07-13T00:39:28;15.63;;;7.47;;
26271;SDS011;13997;48.902;12.472;2023-07-13T00:41:53;9.98;;;6.82;;
26271;SDS011;13997;48.902;12.472;2023-07-13T00:44:20;12.35;;;6.22;;
26271;SDS011;13997;48.902;12.472;2023-07-13T00:46:48;11.30;;;6.90;;
26271;SDS011;13997;48.902;12.472;2023-07-13T00:49:15;11.88;;;6.68;;
26271;SDS011;13997;48.902;12.472;2023-07-13T00:51:45;17.30;;;7.70;;
26271;SDS011;13997;48.902;12.472;2023-07-13T00:54:37;8.32;;;5.93;;
26271;SDS011;13997;48.902;12.472;2023-07-13T00:57:06;12.77;;;6.40;;
26271;SDS011;13997;48.902;12.472;2023-07-13T00:59:34;9.57;;;6.32;;
26271;SDS011;13997;48.902;12.472;2023-07-13T01:02:02;9.45;;;6.00;;
26271;SDS011;13997;48.902;12.472;2023-07-13T01:04:28;10.32;;;6.57;;
26271;SDS011;13997;48.902;12.472;2023-07-13T01:06:54;16.90;;;6.35;;
26271;SDS011;13997;48.902;12.472;2023-07-13T01:09:21;19.90;;;6.65;;
26271;SDS011;13997;48.902;12.472;2023-07-13T01:11:47;15.75;;;6.88;;
26271;SDS011;13997;48.902;12.472;2023-07-13T01:14:14;12.98;;;5.57;;
26271;SDS011;13997;48.902;12.472;2023-07-13T01:16:40;12.70;;;5.40;;
26271;SDS011;13997;48.902;12.472;2023-07-13T01:19:18;12.10;;;5.55;;
26271;SDS011;13997;48.902;12.472;2023-07-13T01:22:01;9.30;;;5.53;;
26271;SDS011;13997;48.902;12.472;2023-07-13T01:24:28;11.70;;;5.57;;
26271;SDS011;13997;48.902;12.472;2023-07-13T01:26:54;13.85;;;6.50;;
26271;SDS011;13997;48.902;12.472;2023-07-13T01:29:20;13.40;;;5.53;;
26271;SDS011;13997;48.902;12.472;2023-07-13T01:31:46;11.00;;;5.53;;
26271;SDS011;13997;48.902;12.472;2023-07-13T01:34:12;16.25;;;5.80;;
26271;SDS011;13997;48.902;12.472;2023-07-13T01:36:38;9.30;;;4.88;;
26271;SDS011;13997;48.902;12.472;2023-07-13T01:39:03;10.18;;;6.20;;
26271;SDS011;13997;48.902;12.472;2023-07-13T01:41:29;10.57;;;5.60;;
26271;SDS011;13997;48.902;12.472;2023-07-13T01:43:55;13.65;;;5.47;;
26271;SDS011;13997;48.902;12.472;2023-07-13T01:46:20;11.77;;;6.00;;
26271;SDS011;13997;48.902;12.472;2023-07-13T01:48:46;9.27;;;4.90;;
26271;SDS011;13997;48.902;12.472;2023-07-13T01:51:12;10.40;;;4.78;;
26271;SDS011;13997;48.902;12.472;2023-07-13T01:53:38;9.70;;;4.78;;
26271;SDS011;13997;48.902;12.472;2023-07-13T01:56:04;7.82;;;4.50;;
26271;SDS011;13997;48.902;12.472;2023-07-13T01:58:29;10.55;;;5.40;;
26271;SDS011;13997;48.902;12.472;2023-07-13T02:00:55;13.52;;;4.80;;
26271;SDS011;13997;48.902;12.472;2023-07-13T02:03:21;12.38;;;4.60;;
26271;SDS011;13997;48.902;12.472;2023-07-13T02:05:46;13.15;;;5.53;;
26271;SDS011;13997;48.902;12.472;2023-07-13T02:08:12;10.02;;;4.93;;
26271;SDS011;13997;48.902;12.472;2023-07-13T02:10:37;16.45;;;4.80;;
26271;SDS011;13997;48.902;12.472;2023-07-13T02:13:06;19.13;;;4.90;;
26271;SDS011;13997;48.902;12.472;2023-07-13T02:15:32;11.52;;;3.83;;
26271;SDS011;13997;48.902;12.472;2023-07-13T02:17:58;9.65;;;4.78;;
26271;SDS011;13997;48.902;12.472;2023-07-13T02:20:24;13.10;;;4.57;;
26271;SDS011;13997;48.902;12.472;2023-07-13T02:22:51;13.02;;;4.88;;
26271;SDS011;13997;48.902;12.472;2023-07-13T02:25:17;9.98;;;4.78;;
26271;SDS011;13997;48.902;12.472;2023-07-13T02:27:42;14.60;;;4.90;;
26271;SDS011;13997;48.902;12.472;2023-07-13T02:30:08;11.43;;;4.72;;
26271;SDS011;13997;48.902;12.472;2023-07-13T02:32:35;20.73;;;5.45;;
26271;SDS011;13997;48.902;12.472;2023-07-13T02:35:01;15.77;;;4.75;;
26271;SDS011;13997;48.902;12.472;2023-07-13T02:37:27;17.02;;;4.93;;
26271;SDS011;13997;48.902;12.472;2023-07-13T02:39:52;22.73;;;5.10;;
26271;SDS011;13997;48.902;12.472;2023-07-13T02:42:19;18.05;;;4.78;;
26271;SDS011;13997;48.902;12.472;2023-07-13T02:44:44;15.50;;;4.55;;
26271;SDS011;13997;48.902;12.472;2023-07-13T02:47:10;21.13;;;4.50;;
26271;SDS011;13997;48.902;12.472;2023-07-13T02:49:36;15.70;;;4.32;;
26271;SDS011;13997;48.902;12.472;2023-07-13T02:52:02;26.90;;;5.13;;
26271;SDS011;13997;48.902;12.472;2023-07-13T02:54:27;22.63;;;4.97;;
26271;SDS011;13997;48.902;12.472;2023-07-13T02:56:53;21.30;;;4.80;;
26271;SDS011;13997;48.902;12.472;2023-07-13T02:59:19;14.48;;;4.82;;
26271;SDS011;13997;48.902;12.472;2023-07-13T03:01:44;14.63;;;4.85;;
26271;SDS011;13997;48.902;12.472;2023-07-13T03:04:10;18.73;;;5.18;;
26271;SDS011;13997;48.902;12.472;2023-07-13T03:06:37;11.13;;;3.65;;
26271;SDS011;13997;48.902;12.472;2023-07-13T03:09:02;21.80;;;4.28;;
26271;SDS011;13997;48.902;12.472;2023-07-13T03:11:29;14.75;;;4.15;;
26271;SDS011;13997;48.902;12.472;2023-07-13T03:13:55;17.00;;;4.65;;
26271;SDS011;13997;48.902;12.472;2023-07-13T03:16:20;13.77;;;4.30;;
26271;SDS011;13997;48.902;12.472;2023-07-13T03:18:47;14.98;;;4.70;;
26271;SDS011;13997;48.902;12.472;2023-07-13T03:21:13;24.65;;;4.45;;
26271;SDS011;13997;48.902;12.472;2023-07-13T03:23:38;21.65;;;5.07;;
26271;SDS011;13997;48.902;12.472;2023-07-13T03:26:05;14.68;;;4.10;;
26271;SDS011;13997;48.902;12.472;2023-07-13T03:28:36;17.85;;;4.85;;
26271;SDS011;13997;48.902;12.472;2023-07-13T03:31:06;12.45;;;4.15;;
26271;SDS011;13997;48.902;12.472;2023-07-13T03:33:33;10.77;;;3.75;;
26271;SDS011;13997;48.902;12.472;2023-07-13T03:35:59;17.38;;;4.78;;
26271;SDS011;13997;48.902;12.472;2023-07-13T03:38:25;21.35;;;5.10;;
26271;SDS011;13997;48.902;12.472;2023-07-13T03:40:51;20.13;;;5.07;;
26271;SDS011;13997;48.902;12.472;2023-07-13T03:43:17;17.30;;;4.97;;
26271;SDS011;13997;48.902;12.472;2023-07-13T03:45:45;16.02;;;4.32;;
26271;SDS011;13997;48.902;12.472;2023-07-13T03:48:11;15.63;;;4.80;;
26271;SDS011;13997;48.902;12.472;2023-07-13T03:50:36;19.23;;;4.35;;
26271;SDS011;13997;48.902;12.472;2023-07-13T03:53:02;16.00;;;5.05;;
26271;SDS011;13997;48.902;12.472;2023-07-13T03:55:28;13.55;;;5.53;;
26271;SDS011;13997;48.902;12.472;2023-07-13T03:57:54;16.05;;;4.80;;
26271;SDS011;13997;48.902;12.472;2023-07-13T04:00:24;12.52;;;5.97;;
26271;SDS011;13997;48.902;12.472;2023-07-13T04:02:50;19.40;;;5.50;;
26271;SDS011;13997;48.902;12.472;2023-07-13T04:05:16;13.50;;;5.70;;
26271;SDS011;13997;48.902;12.472;2023-07-13T04:07:42;19.08;;;6.90;;
26271;SDS011;13997;48.902;12.472;2023-07-13T04:10:07;9.90;;;6.53;;
26271;SDS011;13997;48.902;12.472;2023-07-13T04:12:33;13.27;;;6.13;;
26271;SDS011;13997;48.902;12.472;2023-07-13T04:14:59;19.77;;;6.38;;
26271;SDS011;13997;48.902;12.472;2023-07-13T04:17:24;18.70;;;6.93;;
26271;SDS011;13997;48.902;12.472;2023-07-13T04:19:50;20.15;;;6.40;;
26271;SDS011;13997;48.902;12.472;2023-07-13T04:22:16;22.88;;;6.80;;
26271;SDS011;13997;48.902;12.472;2023-07-13T04:24:41;18.08;;;7.60;;
26271;SDS011;13997;48.902;12.472;2023-07-13T04:27:07;14.48;;;7.47;;
26271;SDS011;13997;48.902;12.472;2023-07-13T04:29:32;16.85;;;7.90;;
26271;SDS011;13997;48.902;12.472;2023-07-13T04:31:58;16.70;;;7.68;;
26271;SDS011;13997;48.902;12.472;2023-07-13T04:34:23;16.30;;;6.95;;
26271;SDS011;13997;48.902;12.472;2023-07-13T04:36:49;17.90;;;6.80;;
26271;SDS011;13997;48.902;12.472;2023-07-13T04:39:15;22.27;;;7.93;;
26271;SDS011;13997;48.902;12.472;2023-07-13T04:41:41;26.15;;;7.82;;
26271;SDS011;13997;48.902;12.472;2023-07-13T04:44:06;23.27;;;8.20;;
26271;SDS011;13997;48.902;12.472;2023-07-13T04:46:32;23.73;;;8.90;;
26271;SDS011;13997;48.902;12.472;2023-07-13T04:48:58;15.52;;;8.68;;
26271;SDS011;13997;48.902;12.472;2023-07-13T04:51:23;19.08;;;8.07;;
26271;SDS011;13997;48.902;12.472;2023-07-13T04:53:49;23.58;;;9.10;;
26271;SDS011;13997;48.902;12.472;2023-07-13T04:56:15;22.02;;;9.48;;
26271;SDS011;13997;48.902;12.472;2023-07-13T04:58:41;25.02;;;9.45;;
26271;SDS011;13997;48.902;12.472;2023-07-13T05:01:06;23.30;;;9.95;;
26271;SDS011;13997;48.902;12.472;2023-07-13T05:03:34;26.80;;;10.80;;
26271;SDS011;13997;48.902;12.472;2023-07-13T05:06:03;23.90;;;11.25;;
26271;SDS011;13997;48.902;12.472;2023-07-13T05:08:30;26.47;;;11.00;;
26271;SDS011;13997;48.902;12.472;2023-07-13T05:10:55;28.63;;;10.93;;
26271;SDS011;13997;48.902;12.472;2023-07-13T05:13:21;19.77;;;11.05;;
26271;SDS011;13997;48.902;12.472;2023-07-13T05:15:47;24.95;;;11.00;;
26271;SDS011;13997;48.902;12.472;2023-07-13T05:18:21;26.60;;;12.75;;
26271;SDS011;13997;48.902;12.472;2023-07-13T05:20:46;22.63;;;12.68;;
26271;SDS011;13997;48.902;12.472;2023-07-13T05:23:19;23.02;;;11.88;;
26271;SDS011;13997;48.902;12.472;2023-07-13T05:25:44;22.17;;;12.68;;
26271;SDS011;13997;48.902;12.472;2023-07-13T05:28:10;22.55;;;12.07;;
26271;SDS011;13997;48.902;12.472;2023-07-13T05:30:35;27.65;;;11.73;;
26271;SDS011;13997;48.902;12.472;2023-07-13T05:33:01;19.83;;;11.85;;
26271;SDS011;13997;48.902;12.472;2023-07-13T05:35:26;27.17;;;13.45;;
26271;SDS011;13997;48.902;12.472;2023-07-13T05:37:52;24.50;;;13.27;;
26271;SDS011;13997;48.902;12.472;2023-07-13T05:40:17;19.30;;;13.38;;
26271;SDS011;13997;48.902;12.472;2023-07-13T05:42:43;21.67;;;13.48;;
26271;SDS011;13997;48.902;12.472;2023-07-13T05:45:09;25.45;;;12.65;;
26271;SDS011;13997;48.902;12.472;2023-07-13T05:47:34;24.00;;;12.70;;
26271;SDS011;13997;48.902;12.472;2023-07-13T05:50:00;26.92;;;13.65;;
26271;SDS011;13997;48.902;12.472;2023-07-13T05:52:25;23.00;;;12.05;;
26271;SDS011;13997;48.902;12.472;2023-07-13T05:54:51;22.15;;;11.98;;
26271;SDS011;13997;48.902;12.472;2023-07-13T05:57:17;33.97;;;12.35;;
26271;SDS011;13997;48.902;12.472;2023-07-13T05:59:42;21.38;;;12.02;;
26271;SDS011;13997;48.902;12.472;2023-07-13T06:02:09;19.45;;;11.30;;
26271;SDS011;13997;48.902;12.472;2023-07-13T06:04:35;26.70;;;11.63;;
26271;SDS011;13997;48.902;12.472;2023-07-13T06:07:01;14.25;;;9.13;;
26271;SDS011;13997;48.902;12.472;2023-07-13T06:09:26;14.57;;;8.70;;
26271;SDS011;13997;48.902;12.472;2023-07-13T06:11:52;16.00;;;8.82;;
26271;SDS011;13997;48.902;12.472;2023-07-13T06:14:17;14.65;;;8.10;;
26271;SDS011;13997;48.902;12.472;2023-07-13T06:16:43;14.20;;;8.20;;
26271;SDS011;13997;48.902;12.472;2023-07-13T06:19:09;18.00;;;7.68;;
26271;SDS011;13997;48.902;12.472;2023-07-13T06:21:34;18.02;;;7.68;;
26271;SDS011;13997;48.902;12.472;2023-07-13T06:24:00;10.80;;;6.53;;
26271;SDS011;13997;48.902;12.472;2023-07-13T06:26:28;14.27;;;6.60;;
26271;SDS011;13997;48.902;12.472;2023-07-13T06:28:54;11.88;;;6.50;;
26271;SDS011;13997;48.902;12.472;2023-07-13T06:31:20;13.20;;;6.38;;
26271;SDS011;13997;48.902;12.472;2023-07-13T06:33:45;13.40;;;5.35;;
26271;SDS011;13997;48.902;12.472;2023-07-13T06:36:11;11.57;;;5.70;;
26271;SDS011;13997;48.902;12.472;2023-07-13T06:38:37;10.40;;;5.18;;
26271;SDS011;13997;48.902;12.472;2023-07-13T06:41:04;14.10;;;5.40;;
26271;SDS011;13997;48.902;12.472;2023-07-13T06:43:30;11.77;;;5.13;;
26271;SDS011;13997;48.902;12.472;2023-07-13T06:45:57;9.73;;;4.25;;
26271;SDS011;13997;48.902;12.472;2023-07-13T06:48:23;15.75;;;4.95;;
26271;SDS011;13997;48.902;12.472;2023-07-13T06:50:49;12.35;;;4.40;;
26271;SDS011;13997;48.902;12.472;2023-07-13T06:53:17;9.20;;;4.15;;
26271;SDS011;13997;48.902;12.472;2023-07-13T06:55:44;13.40;;;4.07;;
26271;SDS011;13997;48.902;12.472;2023-07-13T06:58:10;9.07;;;4.05;;
26271;SDS011;13997;48.902;12.472;2023-07-13T07:00:36;17.95;;;4.07;;
26271;SDS011;13997;48.902;12.472;2023-07-13T07:03:01;17.75;;;3.67;;
26271;SDS011;13997;48.902;12.472;2023-07-13T07:05:27;9.07;;;3.55;;
26271;SDS011;13997;48.902;12.472;2023-07-13T07:07:53;13.05;;;3.53;;
26271;SDS011;13997;48.902;12.472;2023-07-13T07:10:20;6.10;;;3.30;;
26271;SDS011;13997;48.902;12.472;2023-07-13T07:12:46;9.65;;;2.83;;
26271;SDS011;13997;48.902;12.472;2023-07-13T07:15:12;13.80;;;2.88;;
26271;SDS011;13997;48.902;12.472;2023-07-13T07:17:38;10.05;;;3.00;;
26271;SDS011;13997;48.902;12.472;2023-07-13T07:20:04;12.07;;;2.70;;
26271;SDS011;13997;48.902;12.472;2023-07-13T07:22:30;8.13;;;3.00;;
26271;SDS011;13997;48.902;12.472;2023-07-13T07:24:57;6.80;;;2.50;;
26271;SDS011;13997;48.902;12.472;2023-07-13T07:27:23;7.15;;;2.60;;
26271;SDS011;13997;48.902;12.472;2023-07-13T07:29:49;6.28;;;2.45;;
26271;SDS011;13997;48.902;12.472;2023-07-13T07:32:15;6.35;;;2.55;;
26271;SDS011;13997;48.902;12.472;2023-07-13T07:34:40;6.50;;;2.30;;
26271;SDS011;13997;48.902;12.472;2023-07-13T07:37:06;9.40;;;2.80;;
26271;SDS011;13997;48.902;12.472;2023-07-13T07:39:32;6.97;;;2.53;;
26271;SDS011;13997;48.902;12.472;2023-07-13T07:41:57;9.18;;;2.72;;
26271;SDS011;13997;48.902;12.472;2023-07-13T07:44:23;3.80;;;1.90;;
26271;SDS011;13997;48.902;12.472;2023-07-13T07:46:49;11.30;;;2.47;;
26271;SDS011;13997;48.902;12.472;2023-07-13T07:49:15;4.75;;;1.55;;
26271;SDS011;13997;48.902;12.472;2023-07-13T07:51:41;6.55;;;2.08;;
26271;SDS011;13997;48.902;12.472;2023-07-13T07:54:06;5.05;;;2.05;;
26271;SDS011;13997;48.902;12.472;2023-07-13T07:56:32;7.53;;;2.17;;
26271;SDS011;13997;48.902;12.472;2023-07-13T07:58:58;10.57;;;2.10;;
26271;SDS011;13997;48.902;12.472;2023-07-13T08:01:24;8.23;;;2.10;;
26271;SDS011;13997;48.902;12.472;2023-07-13T08:03:50;7.95;;;2.33;;
26271;SDS011;13997;48.902;12.472;2023-07-13T08:06:15;8.68;;;2.17;;
26271;SDS011;13997;48.902;12.472;2023-07-13T08:08:41;4.55;;;1.80;;
26271;SDS011;13997;48.902;12.472;2023-07-13T08:11:07;6.38;;;1.92;;
26271;SDS011;13997;48.902;12.472;2023-07-13T08:13:34;7.68;;;1.77;;
26271;SDS011;13997;48.902;12.472;2023-07-13T08:16:00;7.10;;;1.40;;
26271;SDS011;13997;48.902;12.472;2023-07-13T08:18:25;4.13;;;1.40;;
26271;SDS011;13997;48.902;12.472;2023-07-13T08:20:53;6.30;;;1.50;;
26271;SDS011;13997;48.902;12.472;2023-07-13T08:23:21;8.80;;;1.85;;
26271;SDS011;13997;48.902;12.472;2023-07-13T08:25:51;8.27;;;1.40;;
26271;SDS011;13997;48.902;12.472;2023-07-13T08:28:17;3.60;;;1.42;;
26271;SDS011;13997;48.902;12.472;2023-07-13T08:30:43;5.45;;;1.40;;
26271;SDS011;13997;48.902;12.472;2023-07-13T08:33:09;8.65;;;1.40;;
26271;SDS011;13997;48.902;12.472;2023-07-13T08:35:35;10.00;;;1.42;;
26271;SDS011;13997;48.902;12.472;2023-07-13T08:38:00;5.20;;;1.92;;
26271;SDS011;13997;48.902;12.472;2023-07-13T08:40:27;4.10;;;1.00;;
26271;SDS011;13997;48.902;12.472;2023-07-13T08:42:57;5.65;;;1.13;;
26271;SDS011;13997;48.902;12.472;2023-07-13T08:48:04;6.65;;;1.25;;
26271;SDS011;13997;48.902;12.472;2023-07-13T08:50:44;11.80;;;1.35;;
26271;SDS011;13997;48.902;12.472;2023-07-13T08:53:36;3.42;;;1.20;;
26271;SDS011;13997;48.902;12.472;2023-07-13T08:56:08;4.22;;;1.42;;
26271;SDS011;13997;48.902;12.472;2023-07-13T08:58:42;6.88;;;1.23;;
26271;SDS011;13997;48.902;12.472;2023-07-13T09:01:13;7.47;;;1.40;;
26271;SDS011;13997;48.902;12.472;2023-07-13T09:03:59;5.97;;;1.30;;
26271;SDS011;13997;48.902;12.472;2023-07-13T09:12:04;4.13;;;1.48;;
26271;SDS011;13997;48.902;12.472;2023-07-13T09:14:41;4.45;;;1.25;;
26271;SDS011;13997;48.902;12.472;2023-07-13T09:17:15;6.95;;;1.13;;
26271;SDS011;13997;48.902;12.472;2023-07-13T09:19:43;7.60;;;1.38;;
26271;SDS011;13997;48.902;12.472;2023-07-13T09:22:19;8.10;;;1.58;;
26271;SDS011;13997;48.902;12.472;2023-07-13T09:24:52;8.55;;;1.30;;
26271;SDS011;13997;48.902;12.472;2023-07-13T09:27:23;2.42;;;0.98;;
26271;SDS011;13997;48.902;12.472;2023-07-13T09:29:57;10.85;;;1.80;;
26271;SDS011;13997;48.902;12.472;2023-07-13T09:32:30;9.50;;;1.42;;
26271;SDS011;13997;48.902;12.472;2023-07-13T09:34:57;6.25;;;1.50;;
26271;SDS011;13997;48.902;12.472;2023-07-13T09:37:28;4.70;;;1.63;;
26271;SDS011;13997;48.902;12.472;2023-07-13T09:39:57;4.43;;;1.40;;
26271;SDS011;13997;48.902;12.472;2023-07-13T09:42:24;5.40;;;1.17;;
26271;SDS011;13997;48.902;12.472;2023-07-13T09:44:58;7.88;;;1.50;;
26271;SDS011;13997;48.902;12.472;2023-07-13T09:47:28;6.68;;;1.67;;
26271;SDS011;13997;48.902;12.472;2023-07-13T09:49:59;7.60;;;1.30;;
26271;SDS011;13997;48.902;12.472;2023-07-13T09:52:26;5.78;;;1.23;;
26271;SDS011;13997;48.902;12.472;2023-07-13T09:55:04;7.53;;;1.30;;
26271;SDS011;13997;48.902;12.472;2023-07-13T09:57:47;3.42;;;1.20;;
26271;SDS011;13997;48.902;12.472;2023-07-13T10:00:19;3.40;;;1.17;;
26271;SDS011;13997;48.902;12.472;2023-07-13T10:02:49;6.50;;;1.40;;
26271;SDS011;13997;48.902;12.472;2023-07-13T10:05:44;5.47;;;1.40;;
26271;SDS011;13997;48.902;12.472;2023-07-13T10:11:13;7.05;;;1.52;;
26271;SDS011;13997;48.902;12.472;2023-07-13T10:13:46;2.85;;;1.00;;
26271;SDS011;13997;48.902;12.472;2023-07-13T10:16:15;5.18;;;1.20;;
26271;SDS011;13997;48.902;12.472;2023-07-13T10:19:05;5.55;;;1.17;;
26271;SDS011;13997;48.902;12.472;2023-07-13T10:21:37;8.07;;;1.65;;
26271;SDS011;13997;48.902;12.472;2023-07-13T10:24:18;5.65;;;1.00;;
26271;SDS011;13997;48.902;12.472;2023-07-13T10:29:46;3.58;;;1.15;;
26271;SDS011;13997;48.902;12.472;2023-07-13T10:32:24;4.88;;;1.05;;
26271;SDS011;13997;48.902;12.472;2023-07-13T10:34:50;5.80;;;1.52;;
26271;SDS011;13997;48.902;12.472;2023-07-13T10:37:21;12.55;;;1.55;;
26271;SDS011;13997;48.902;12.472;2023-07-13T10:39:50;3.70;;;1.10;;
26271;SDS011;13997;48.902;12.472;2023-07-13T10:42:25;3.80;;;1.10;;
26271;SDS011;13997;48.902;12.472;2023-07-13T10:44:55;3.63;;;1.05;;
26271;SDS011;13997;48.902;12.472;2023-07-13T10:47:20;3.88;;;1.30;;
26271;SDS011;13997;48.902;12.472;2023-07-13T10:49:47;7.75;;;1.33;;
26271;SDS011;13997;48.902;12.472;2023-07-13T10:55:41;4.88;;;1.45;;
26271;SDS011;13997;48.902;12.472;2023-07-13T11:03:31;3.17;;;1.20;;
26271;SDS011;13997;48.902;12.472;2023-07-13T11:06:07;7.10;;;1.10;;
26271;SDS011;13997;48.902;12.472;2023-07-13T11:18:48;3.15;;;1.15;;
26271;SDS011;13997;48.902;12.472;2023-07-13T11:23:44;3.65;;;1.05;;
26271;SDS011;13997;48.902;12.472;2023-07-13T11:31:41;3.22;;;1.20;;
26271;SDS011;13997;48.902;12.472;2023-07-13T11:34:12;3.20;;;1.17;;
26271;SDS011;13997;48.902;12.472;2023-07-13T11:36:41;1.92;;;0.88;;
26271;SDS011;13997;48.902;12.472;2023-07-13T11:41:56;5.25;;;1.00;;
26271;SDS011;13997;48.902;12.472;2023-07-13T11:44:28;4.82;;;1.02;;
26271;SDS011;13997;48.902;12.472;2023-07-13T11:46:55;3.50;;;1.15;;
26271;SDS011;13997;48.902;12.472;2023-07-13T11:49:26;3.28;;;1.08;;
26271;SDS011;13997;48.902;12.472;2023-07-13T11:51:55;1.90;;;0.90;;
26271;SDS011;13997;48.902;12.472;2023-07-13T11:54:30;3.10;;;0.93;;
26271;SDS011;13997;48.902;12.472;2023-07-13T11:56:59;4.15;;;1.15;;
26271;SDS011;13997;48.902;12.472;2023-07-13T11:59:31;3.10;;;0.95;;
26271;SDS011;13997;48.902;12.472;2023-07-13T12:01:58;4.55;;;1.02;;
26271;SDS011;13997;48.902;12.472;2023-07-13T12:04:25;4.13;;;1.00;;
26271;SDS011;13997;48.902;12.472;2023-07-13T12:07:36;4.80;;;1.02;;
26271;SDS011;13997;48.902;12.472;2023-07-13T12:09:43;4.95;;;0.93;;
26271;SDS011;13997;48.902;12.472;2023-07-13T12:12:13;3.05;;;0.85;;
26271;SDS011;13997;48.902;12.472;2023-07-13T12:14:42;3.72;;;1.08;;
26271;SDS011;13997;48.902;12.472;2023-07-13T12:17:18;4.13;;;1.23;;
26271;SDS011;13997;48.902;12.472;2023-07-13T12:19:46;4.07;;;1.20;;
26271;SDS011;13997;48.902;12.472;2023-07-13T12:22:14;6.55;;;1.30;;
26271;SDS011;13997;48.902;12.472;2023-07-13T12:24:41;7.20;;;1.00;;
26271;SDS011;13997;48.902;12.472;2023-07-13T12:27:42;2.92;;;1.00;;
26271;SDS011;13997;48.902;12.472;2023-07-13T12:30:02;3.30;;;1.00;;
26271;SDS011;13997;48.902;12.472;2023-07-13T12:32:30;2.55;;;1.10;;
26271;SDS011;13997;48.902;12.472;2023-07-13T12:34:56;8.20;;;0.90;;
26271;SDS011;13997;48.902;12.472;2023-07-13T12:37:34;5.70;;;1.15;;
26271;SDS011;13997;48.902;12.472;2023-07-13T12:40:00;3.22;;;1.00;;
26271;SDS011;13997;48.902;12.472;2023-07-13T12:42:31;4.78;;;1.08;;
26271;SDS011;13997;48.902;12.472;2023-07-13T12:45:01;11.15;;;1.73;;
26271;SDS011;13997;48.902;12.472;2023-07-13T12:47:42;6.82;;;1.40;;
26271;SDS011;13997;48.902;12.472;2023-07-13T12:50:12;6.53;;;1.20;;
26271;SDS011;13997;48.902;12.472;2023-07-13T12:52:43;2.65;;;0.90;;
26271;SDS011;13997;48.902;12.472;2023-07-13T12:55:17;4.13;;;1.10;;
26271;SDS011;13997;48.902;12.472;2023-07-13T12:57:49;6.45;;;1.27;;
26271;SDS011;13997;48.902;12.472;2023-07-13T13:00:25;4.25;;;1.08;;
26271;SDS011;13997;48.902;12.472;2023-07-13T13:02:58;4.13;;;1.20;;
26271;SDS011;13997;48.902;12.472;2023-07-13T13:05:29;5.00;;;1.30;;
26271;SDS011;13997;48.902;12.472;2023-07-13T13:07:55;3.13;;;0.98;;
26271;SDS011;13997;48.902;12.472;2023-07-13T13:10:21;6.10;;;1.23;;
26271;SDS011;13997;48.902;12.472;2023-07-13T13:12:47;3.55;;;0.77;;
26271;SDS011;13997;48.902;12.472;2023-07-13T13:15:12;7.05;;;0.90;;
26271;SDS011;13997;48.902;12.472;2023-07-13T13:17:38;2.38;;;0.90;;
26271;SDS011;13997;48.902;12.472;2023-07-13T13:20:13;8.10;;;1.70;;
26271;SDS011;13997;48.902;12.472;2023-07-13T13:22:46;2.70;;;0.85;;
26271;SDS011;13997;48.902;12.472;2023-07-13T13:25:12;4.15;;;1.05;;
26271;SDS011;13997;48.902;12.472;2023-07-13T13:27:40;5.72;;;1.08;;
26271;SDS011;13997;48.902;12.472;2023-07-13T13:30:10;5.40;;;0.95;;
26271;SDS011;13997;48.902;12.472;2023-07-13T13:35:13;3.45;;;0.80;;
26271;SDS011;13997;48.902;12.472;2023-07-13T13:37:40;4.72;;;1.02;;
26271;SDS011;13997;48.902;12.472;2023-07-13T13:40:15;3.20;;;1.00;;
26271;SDS011;13997;48.902;12.472;2023-07-13T13:42:43;4.03;;;1.05;;
26271;SDS011;13997;48.902;12.472;2023-07-13T13:45:11;2.67;;;1.00;;
26271;SDS011;13997;48.902;12.472;2023-07-13T13:47:38;4.18;;;1.00;;
26271;SDS011;13997;48.902;12.472;2023-07-13T13:50:14;3.65;;;1.02;;
26271;SDS011;13997;48.902;12.472;2023-07-13T13:52:42;2.78;;;0.80;;
26271;SDS011;13997;48.902;12.472;2023-07-13T13:55:19;7.10;;;1.08;;
26271;SDS011;13997;48.902;12.472;2023-07-13T13:57:46;4.18;;;1.40;;
26271;SDS011;13997;48.902;12.472;2023-07-13T14:00:13;3.95;;;1.10;;
26271;SDS011;13997;48.902;12.472;2023-07-13T14:02:42;7.07;;;1.00;;
26271;SDS011;13997;48.902;12.472;2023-07-13T14:05:15;4.30;;;0.98;;
26271;SDS011;13997;48.902;12.472;2023-07-13T14:10:12;4.30;;;0.90;;
26271;SDS011;13997;48.902;12.472;2023-07-13T14:12:40;5.85;;;1.00;;
26271;SDS011;13997;48.902;12.472;2023-07-13T14:15:12;2.47;;;1.00;;
26271;SDS011;13997;48.902;12.472;2023-07-13T14:17:46;3.47;;;0.90;;
26271;SDS011;13997;48.902;12.472;2023-07-13T14:20:15;6.53;;;0.98;;
26271;SDS011;13997;48.902;12.472;2023-07-13T14:22:42;2.38;;;0.90;;
26271;SDS011;13997;48.902;12.472;2023-07-13T14:25:14;1.50;;;0.70;;
26271;SDS011;13997;48.902;12.472;2023-07-13T14:27:41;5.50;;;0.93;;
26271;SDS011;13997;48.902;12.472;2023-07-13T14:30:19;3.80;;;0.93;;
26271;SDS011;13997;48.902;12.472;2023-07-13T14:32:46;2.38;;;0.80;;
26271;SDS011;13997;48.902;12.472;2023-07-13T14:35:14;3.58;;;0.90;;
26271;SDS011;13997;48.902;12.472;2023-07-13T14:37:41;4.28;;;0.98;;
26271;SDS011;13997;48.902;12.472;2023-07-13T14:40:14;6.57;;;1.23;;
26271;SDS011;13997;48.902;12.472;2023-07-13T14:42:43;6.07;;;1.08;;
26271;SDS011;13997;48.902;12.472;2023-07-13T14:45:18;4.60;;;1.67;;
26271;SDS011;13997;48.902;12.472;2023-07-13T14:47:45;7.50;;;1.20;;
26271;SDS011;13997;48.902;12.472;2023-07-13T14:50:18;5.35;;;0.93;;
26271;SDS011;13997;48.902;12.472;2023-07-13T14:52:46;6.38;;;1.00;;
26271;SDS011;13997;48.902;12.472;2023-07-13T14:55:13;5.68;;;1.27;;
26271;SDS011;13997;48.902;12.472;2023-07-13T14:57:40;3.88;;;0.90;;
26271;SDS011;13997;48.902;12.472;2023-07-13T15:00:13;4.18;;;0.93;;
26271;SDS011;13997;48.902;12.472;2023-07-13T15:02:40;2.75;;;1.05;;
26271;SDS011;13997;48.902;12.472;2023-07-13T15:05:12;3.47;;;0.90;;
26271;SDS011;13997;48.902;12.472;2023-07-13T15:07:43;5.97;;;1.10;;
26271;SDS011;13997;48.902;12.472;2023-07-13T15:10:15;3.15;;;1.10;;
26271;SDS011;13997;48.902;12.472;2023-07-13T15:12:42;3.22;;;1.00;;
26271;SDS011;13997;48.902;12.472;2023-07-13T15:15:08;2.80;;;0.95;;
26271;SDS011;13997;48.902;12.472;2023-07-13T15:17:37;4.65;;;1.15;;
26271;SDS011;13997;48.902;12.472;2023-07-13T15:22:57;4.57;;;1.00;;
26271;SDS011;13997;48.902;12.472;2023-07-13T15:25:25;4.57;;;1.00;;